sensor_id;sensor_type;location;lat;lon;timestamp;P1;durP1;ratioP1;P2;durP2;ratioP2
9763;SDS011;4921;43.214;27.936;2023-05-16T00:00:41;11.53;;;5.83;;
9763;SDS011;4921;43.214;27.936;2023-05-16T00:03:08;8.17;;;5.20;;
9763;SDS011;4921;43.214;27.936;2023-05-16T00:05:36;8.07;;;5.83;;
9763;SDS011;4921;43.214;27.936;2023-05-16T00:08:04;8.57;;;5.30;;
9763;SDS011;4921;43.214;27.936;2023-05-16T00:10:31;7.70;;;5.40;;
9763;SDS011;4921;43.214;27.936;2023-05-16T00:12:58;6.43;;;5.73;;
9763;SDS011;4921;43.214;27.936;2023-05-16T00:15:26;10.37;;;5.63;;
9763;SDS011;4921;43.214;27.936;2023-05-16T00:17:53;9.87;;;5.93;;
9763;SDS011;4921;43.214;27.936;2023-05-16T00:20:23;9.23;;;5.60;;
9763;SDS011;4921;43.214;27.936;2023-05-16T00:22:51;8.43;;;5.57;;
9763;SDS011;4921;43.214;27.936;2023-05-16T00:25:19;8.73;;;5.07;;
9763;SDS011;4921;43.214;27.936;2023-05-16T00:27:46;7.73;;;5.17;;
9763;SDS011;4921;43.214;27.936;2023-05-16T00:30:13;6.43;;;5.07;;
9763;SDS011;4921;43.214;27.936;2023-05-16T00:32:40;8.03;;;5.40;;
9763;SDS011;4921;43.214;27.936;2023-05-16T00:35:07;7.73;;;5.53;;
9763;SDS011;4921;43.214;27.936;2023-05-16T00:37:36;6.40;;;5.77;;
9763;SDS011;4921;43.214;27.936;2023-05-16T00:40:03;9.10;;;5.23;;
9763;SDS011;4921;43.214;27.936;2023-05-16T00:42:33;13.07;;;5.47;;
9763;SDS011;4921;43.214;27.936;2023-05-16T00:44:59;7.43;;;5.53;;
9763;SDS011;4921;43.214;27.936;2023-05-16T00:47:26;7.87;;;5.40;;
9763;SDS011;4921;43.214;27.936;2023-05-16T00:49:53;6.87;;;5.37;;
9763;SDS011;4921;43.214;27.936;2023-05-16T00:52:20;7.27;;;5.43;;
9763;SDS011;4921;43.214;27.936;2023-05-16T00:54:47;6.03;;;5.43;;
9763;SDS011;4921;43.214;27.936;2023-05-16T00:57:14;9.37;;;5.83;;
9763;SDS011;4921;43.214;27.936;2023-05-16T00:59:44;8.17;;;5.27;;
9763;SDS011;4921;43.214;27.936;2023-05-16T01:02:11;8.73;;;5.87;;
9763;SDS011;4921;43.214;27.936;2023-05-16T01:04:39;7.33;;;5.57;;
9763;SDS011;4921;43.214;27.936;2023-05-16T01:07:06;9.60;;;6.27;;
9763;SDS011;4921;43.214;27.936;2023-05-16T01:09:33;11.17;;;6.00;;
9763;SDS011;4921;43.214;27.936;2023-05-16T01:12:03;9.10;;;6.40;;
9763;SDS011;4921;43.214;27.936;2023-05-16T01:14:37;10.13;;;6.00;;
9763;SDS011;4921;43.214;27.936;2023-05-16T01:17:13;9.97;;;5.97;;
9763;SDS011;4921;43.214;27.936;2023-05-16T01:22:37;10.47;;;6.37;;
9763;SDS011;4921;43.214;27.936;2023-05-16T01:25:18;10.33;;;6.23;;
9763;SDS011;4921;43.214;27.936;2023-05-16T01:27:55;6.67;;;5.87;;
9763;SDS011;4921;43.214;27.936;2023-05-16T01:30:23;8.93;;;6.47;;
9763;SDS011;4921;43.214;27.936;2023-05-16T01:32:50;9.57;;;5.90;;
9763;SDS011;4921;43.214;27.936;2023-05-16T01:35:17;9.60;;;5.83;;
9763;SDS011;4921;43.214;27.936;2023-05-16T01:37:46;7.67;;;6.10;;
9763;SDS011;4921;43.214;27.936;2023-05-16T01:40:19;12.07;;;6.40;;
9763;SDS011;4921;43.214;27.936;2023-05-16T01:42:56;8.50;;;5.97;;
9763;SDS011;4921;43.214;27.936;2023-05-16T01:45:30;6.57;;;5.87;;
9763;SDS011;4921;43.214;27.936;2023-05-16T01:48:03;9.17;;;6.07;;
9763;SDS011;4921;43.214;27.936;2023-05-16T01:50:33;11.17;;;6.77;;
9763;SDS011;4921;43.214;27.936;2023-05-16T01:53:05;9.33;;;6.27;;
9763;SDS011;4921;43.214;27.936;2023-05-16T01:55:38;8.80;;;6.50;;
9763;SDS011;4921;43.214;27.936;2023-05-16T01:58:11;10.17;;;6.20;;
9763;SDS011;4921;43.214;27.936;2023-05-16T02:00:39;12.37;;;6.20;;
9763;SDS011;4921;43.214;27.936;2023-05-16T02:03:06;7.50;;;5.73;;
9763;SDS011;4921;43.214;27.936;2023-05-16T02:05:34;10.90;;;6.70;;
9763;SDS011;4921;43.214;27.936;2023-05-16T02:08:01;12.30;;;6.63;;
9763;SDS011;4921;43.214;27.936;2023-05-16T02:10:29;12.53;;;7.00;;
9763;SDS011;4921;43.214;27.936;2023-05-16T02:12:57;10.13;;;6.67;;
9763;SDS011;4921;43.214;27.936;2023-05-16T02:15:25;10.37;;;6.30;;
9763;SDS011;4921;43.214;27.936;2023-05-16T02:17:53;11.37;;;6.67;;
9763;SDS011;4921;43.214;27.936;2023-05-16T02:20:20;8.20;;;6.13;;
9763;SDS011;4921;43.214;27.936;2023-05-16T02:22:47;9.17;;;6.47;;
9763;SDS011;4921;43.214;27.936;2023-05-16T02:25:14;7.63;;;6.60;;
9763;SDS011;4921;43.214;27.936;2023-05-16T02:27:41;9.17;;;6.43;;
9763;SDS011;4921;43.214;27.936;2023-05-16T02:30:08;9.43;;;6.80;;
9763;SDS011;4921;43.214;27.936;2023-05-16T02:32:37;8.87;;;6.83;;
9763;SDS011;4921;43.214;27.936;2023-05-16T02:35:05;13.20;;;7.27;;
9763;SDS011;4921;43.214;27.936;2023-05-16T02:37:33;9.73;;;6.57;;
9763;SDS011;4921;43.214;27.936;2023-05-16T02:40:00;9.93;;;7.13;;
9763;SDS011;4921;43.214;27.936;2023-05-16T02:42:27;9.30;;;6.90;;
9763;SDS011;4921;43.214;27.936;2023-05-16T02:44:54;10.43;;;7.03;;
9763;SDS011;4921;43.214;27.936;2023-05-16T02:47:21;9.90;;;6.93;;
9763;SDS011;4921;43.214;27.936;2023-05-16T02:49:50;11.93;;;6.87;;
9763;SDS011;4921;43.214;27.936;2023-05-16T02:52:17;9.73;;;6.77;;
9763;SDS011;4921;43.214;27.936;2023-05-16T02:54:44;11.30;;;7.70;;
9763;SDS011;4921;43.214;27.936;2023-05-16T02:57:11;8.87;;;7.13;;
9763;SDS011;4921;43.214;27.936;2023-05-16T02:59:38;9.47;;;6.53;;
9763;SDS011;4921;43.214;27.936;2023-05-16T03:02:05;9.37;;;6.10;;
9763;SDS011;4921;43.214;27.936;2023-05-16T03:04:32;7.77;;;5.53;;
9763;SDS011;4921;43.214;27.936;2023-05-16T03:07:00;11.93;;;6.37;;
9763;SDS011;4921;43.214;27.936;2023-05-16T03:09:27;10.27;;;7.30;;
9763;SDS011;4921;43.214;27.936;2023-05-16T03:11:54;10.43;;;7.50;;
9763;SDS011;4921;43.214;27.936;2023-05-16T03:14:21;11.87;;;7.70;;
9763;SDS011;4921;43.214;27.936;2023-05-16T03:16:48;15.97;;;8.00;;
9763;SDS011;4921;43.214;27.936;2023-05-16T03:19:15;12.50;;;7.90;;
9763;SDS011;4921;43.214;27.936;2023-05-16T03:21:42;10.47;;;8.33;;
9763;SDS011;4921;43.214;27.936;2023-05-16T03:24:11;9.03;;;7.50;;
9763;SDS011;4921;43.214;27.936;2023-05-16T03:26:38;10.17;;;8.33;;
9763;SDS011;4921;43.214;27.936;2023-05-16T03:29:04;13.60;;;7.60;;
9763;SDS011;4921;43.214;27.936;2023-05-16T03:31:31;12.20;;;7.90;;
9763;SDS011;4921;43.214;27.936;2023-05-16T03:33:58;13.63;;;8.27;;
9763;SDS011;4921;43.214;27.936;2023-05-16T03:36:25;8.20;;;7.40;;
9763;SDS011;4921;43.214;27.936;2023-05-16T03:38:52;13.10;;;8.10;;
9763;SDS011;4921;43.214;27.936;2023-05-16T03:41:21;10.50;;;8.23;;
9763;SDS011;4921;43.214;27.936;2023-05-16T03:43:48;12.13;;;8.50;;
9763;SDS011;4921;43.214;27.936;2023-05-16T03:46:15;15.07;;;9.03;;
9763;SDS011;4921;43.214;27.936;2023-05-16T03:48:42;11.53;;;9.60;;
9763;SDS011;4921;43.214;27.936;2023-05-16T03:51:09;11.20;;;8.67;;
9763;SDS011;4921;43.214;27.936;2023-05-16T03:53:36;14.73;;;9.87;;
9763;SDS011;4921;43.214;27.936;2023-05-16T03:56:03;11.87;;;8.77;;
9763;SDS011;4921;43.214;27.936;2023-05-16T03:58:32;12.57;;;8.10;;
9763;SDS011;4921;43.214;27.936;2023-05-16T04:00:59;13.33;;;8.80;;
9763;SDS011;4921;43.214;27.936;2023-05-16T04:03:26;14.97;;;8.57;;
9763;SDS011;4921;43.214;27.936;2023-05-16T04:05:54;12.60;;;7.80;;
9763;SDS011;4921;43.214;27.936;2023-05-16T04:08:21;11.23;;;7.90;;
9763;SDS011;4921;43.214;27.936;2023-05-16T04:10:48;8.53;;;7.33;;
9763;SDS011;4921;43.214;27.936;2023-05-16T04:13:15;12.50;;;9.70;;
9763;SDS011;4921;43.214;27.936;2023-05-16T04:15:43;10.13;;;8.00;;
9763;SDS011;4921;43.214;27.936;2023-05-16T04:18:11;12.67;;;8.17;;
9763;SDS011;4921;43.214;27.936;2023-05-16T04:20:38;16.27;;;8.30;;
9763;SDS011;4921;43.214;27.936;2023-05-16T04:23:05;16.40;;;8.77;;
9763;SDS011;4921;43.214;27.936;2023-05-16T04:25:32;10.03;;;7.53;;
9763;SDS011;4921;43.214;27.936;2023-05-16T04:27:59;11.40;;;7.33;;
9763;SDS011;4921;43.214;27.936;2023-05-16T04:30:26;9.20;;;7.70;;
9763;SDS011;4921;43.214;27.936;2023-05-16T04:32:54;14.43;;;9.13;;
9763;SDS011;4921;43.214;27.936;2023-05-16T04:35:23;12.87;;;8.60;;
9763;SDS011;4921;43.214;27.936;2023-05-16T04:37:50;13.07;;;8.47;;
9763;SDS011;4921;43.214;27.936;2023-05-16T04:40:17;14.20;;;7.30;;
9763;SDS011;4921;43.214;27.936;2023-05-16T04:42:53;10.07;;;6.47;;
9763;SDS011;4921;43.214;27.936;2023-05-16T04:45:40;11.83;;;7.37;;
9763;SDS011;4921;43.214;27.936;2023-05-16T04:48:09;11.50;;;7.53;;
9763;SDS011;4921;43.214;27.936;2023-05-16T04:50:36;9.27;;;6.63;;
9763;SDS011;4921;43.214;27.936;2023-05-16T04:53:03;14.83;;;7.50;;
9763;SDS011;4921;43.214;27.936;2023-05-16T04:55:30;9.57;;;6.33;;
9763;SDS011;4921;43.214;27.936;2023-05-16T04:57:57;11.23;;;6.60;;
9763;SDS011;4921;43.214;27.936;2023-05-16T05:00:24;12.40;;;7.13;;
9763;SDS011;4921;43.214;27.936;2023-05-16T05:02:51;13.93;;;6.40;;
9763;SDS011;4921;43.214;27.936;2023-05-16T05:05:19;16.03;;;6.30;;
9763;SDS011;4921;43.214;27.936;2023-05-16T05:07:46;12.30;;;6.93;;
9763;SDS011;4921;43.214;27.936;2023-05-16T05:10:13;9.87;;;6.40;;
9763;SDS011;4921;43.214;27.936;2023-05-16T05:12:40;11.13;;;6.33;;
9763;SDS011;4921;43.214;27.936;2023-05-16T05:15:07;9.77;;;6.70;;
9763;SDS011;4921;43.214;27.936;2023-05-16T05:17:34;9.47;;;6.73;;
9763;SDS011;4921;43.214;27.936;2023-05-16T05:20:02;9.83;;;6.17;;
9763;SDS011;4921;43.214;27.936;2023-05-16T05:22:32;11.97;;;5.57;;
9763;SDS011;4921;43.214;27.936;2023-05-16T05:24:59;14.77;;;6.87;;
9763;SDS011;4921;43.214;27.936;2023-05-16T05:27:27;9.33;;;6.20;;
9763;SDS011;4921;43.214;27.936;2023-05-16T05:29:54;9.37;;;6.03;;
9763;SDS011;4921;43.214;27.936;2023-05-16T05:32:21;13.50;;;6.00;;
9763;SDS011;4921;43.214;27.936;2023-05-16T05:34:47;10.13;;;5.63;;
9763;SDS011;4921;43.214;27.936;2023-05-16T05:37:14;10.63;;;6.20;;
9763;SDS011;4921;43.214;27.936;2023-05-16T05:39:43;8.33;;;5.37;;
9763;SDS011;4921;43.214;27.936;2023-05-16T05:42:10;9.73;;;5.60;;
9763;SDS011;4921;43.214;27.936;2023-05-16T05:44:37;11.03;;;5.70;;
9763;SDS011;4921;43.214;27.936;2023-05-16T05:47:04;10.33;;;5.70;;
9763;SDS011;4921;43.214;27.936;2023-05-16T05:49:32;10.47;;;5.83;;
9763;SDS011;4921;43.214;27.936;2023-05-16T05:52:00;9.40;;;5.40;;
9763;SDS011;4921;43.214;27.936;2023-05-16T05:54:27;10.13;;;5.57;;
9763;SDS011;4921;43.214;27.936;2023-05-16T05:56:55;11.87;;;5.83;;
9763;SDS011;4921;43.214;27.936;2023-05-16T05:59:22;10.37;;;5.53;;
9763;SDS011;4921;43.214;27.936;2023-05-16T06:01:49;10.50;;;6.00;;
9763;SDS011;4921;43.214;27.936;2023-05-16T06:04:17;8.70;;;5.10;;
9763;SDS011;4921;43.214;27.936;2023-05-16T06:06:44;12.43;;;5.47;;
9763;SDS011;4921;43.214;27.936;2023-05-16T06:09:11;11.90;;;5.43;;
9763;SDS011;4921;43.214;27.936;2023-05-16T06:11:39;9.23;;;5.30;;
9763;SDS011;4921;43.214;27.936;2023-05-16T06:14:07;9.90;;;5.73;;
9763;SDS011;4921;43.214;27.936;2023-05-16T06:16:35;10.87;;;5.80;;
9763;SDS011;4921;43.214;27.936;2023-05-16T06:19:03;12.37;;;6.03;;
9763;SDS011;4921;43.214;27.936;2023-05-16T06:21:30;7.70;;;5.10;;
9763;SDS011;4921;43.214;27.936;2023-05-16T06:23:57;14.40;;;5.13;;
9763;SDS011;4921;43.214;27.936;2023-05-16T06:26:24;10.63;;;5.07;;
9763;SDS011;4921;43.214;27.936;2023-05-16T06:28:51;14.47;;;5.40;;
9763;SDS011;4921;43.214;27.936;2023-05-16T06:31:19;9.57;;;4.70;;
9763;SDS011;4921;43.214;27.936;2023-05-16T06:33:46;12.10;;;5.13;;
9763;SDS011;4921;43.214;27.936;2023-05-16T06:36:13;9.77;;;4.90;;
9763;SDS011;4921;43.214;27.936;2023-05-16T06:38:40;11.90;;;5.90;;
9763;SDS011;4921;43.214;27.936;2023-05-16T06:41:07;14.80;;;7.13;;
9763;SDS011;4921;43.214;27.936;2023-05-16T06:43:34;12.27;;;5.77;;
9763;SDS011;4921;43.214;27.936;2023-05-16T06:46:01;9.97;;;5.50;;
9763;SDS011;4921;43.214;27.936;2023-05-16T06:48:29;13.47;;;5.73;;
9763;SDS011;4921;43.214;27.936;2023-05-16T06:50:57;13.00;;;5.50;;
9763;SDS011;4921;43.214;27.936;2023-05-16T06:53:24;12.40;;;6.87;;
9763;SDS011;4921;43.214;27.936;2023-05-16T06:55:51;9.83;;;6.63;;
9763;SDS011;4921;43.214;27.936;2023-05-16T06:58:18;11.10;;;4.93;;
9763;SDS011;4921;43.214;27.936;2023-05-16T07:00:45;8.67;;;4.80;;
9763;SDS011;4921;43.214;27.936;2023-05-16T07:03:14;11.00;;;5.33;;
9763;SDS011;4921;43.214;27.936;2023-05-16T07:05:42;9.97;;;4.93;;
9763;SDS011;4921;43.214;27.936;2023-05-16T07:08:09;9.77;;;4.63;;
9763;SDS011;4921;43.214;27.936;2023-05-16T07:10:36;8.47;;;5.10;;
9763;SDS011;4921;43.214;27.936;2023-05-16T07:13:03;8.33;;;4.43;;
9763;SDS011;4921;43.214;27.936;2023-05-16T07:15:30;7.27;;;4.63;;
9763;SDS011;4921;43.214;27.936;2023-05-16T07:17:57;11.10;;;4.60;;
9763;SDS011;4921;43.214;27.936;2023-05-16T07:20:24;9.43;;;4.87;;
9763;SDS011;4921;43.214;27.936;2023-05-16T07:22:52;10.33;;;5.10;;
9763;SDS011;4921;43.214;27.936;2023-05-16T07:25:21;9.03;;;4.40;;
9763;SDS011;4921;43.214;27.936;2023-05-16T07:27:48;6.63;;;4.37;;
9763;SDS011;4921;43.214;27.936;2023-05-16T07:30:15;8.60;;;4.20;;
9763;SDS011;4921;43.214;27.936;2023-05-16T07:32:42;6.93;;;4.20;;
9763;SDS011;4921;43.214;27.936;2023-05-16T07:35:09;10.73;;;4.60;;
9763;SDS011;4921;43.214;27.936;2023-05-16T07:37:37;7.17;;;4.40;;
9763;SDS011;4921;43.214;27.936;2023-05-16T07:40:08;7.20;;;4.00;;
9763;SDS011;4921;43.214;27.936;2023-05-16T07:42:45;8.73;;;4.67;;
9763;SDS011;4921;43.214;27.936;2023-05-16T07:45:12;6.83;;;4.50;;
9763;SDS011;4921;43.214;27.936;2023-05-16T07:47:39;6.50;;;4.10;;
9763;SDS011;4921;43.214;27.936;2023-05-16T07:50:06;6.83;;;4.37;;
9763;SDS011;4921;43.214;27.936;2023-05-16T07:52:34;9.70;;;4.27;;
9763;SDS011;4921;43.214;27.936;2023-05-16T07:55:01;8.17;;;3.90;;
9763;SDS011;4921;43.214;27.936;2023-05-16T07:57:29;7.00;;;4.80;;
9763;SDS011;4921;43.214;27.936;2023-05-16T07:59:56;10.33;;;4.67;;
9763;SDS011;4921;43.214;27.936;2023-05-16T08:02:23;9.60;;;4.73;;
9763;SDS011;4921;43.214;27.936;2023-05-16T08:04:54;8.67;;;4.27;;
9763;SDS011;4921;43.214;27.936;2023-05-16T08:07:21;8.07;;;4.43;;
9763;SDS011;4921;43.214;27.936;2023-05-16T08:09:48;9.90;;;4.10;;
9763;SDS011;4921;43.214;27.936;2023-05-16T08:12:15;7.20;;;4.10;;
9763;SDS011;4921;43.214;27.936;2023-05-16T08:14:44;8.77;;;4.63;;
9763;SDS011;4921;43.214;27.936;2023-05-16T08:17:11;7.50;;;3.80;;
9763;SDS011;4921;43.214;27.936;2023-05-16T08:19:38;7.47;;;4.57;;
9763;SDS011;4921;43.214;27.936;2023-05-16T08:22:05;10.27;;;4.40;;
9763;SDS011;4921;43.214;27.936;2023-05-16T08:24:33;6.13;;;4.03;;
9763;SDS011;4921;43.214;27.936;2023-05-16T08:26:59;5.67;;;4.53;;
9763;SDS011;4921;43.214;27.936;2023-05-16T08:29:26;8.53;;;4.63;;
9763;SDS011;4921;43.214;27.936;2023-05-16T08:31:55;8.57;;;4.43;;
9763;SDS011;4921;43.214;27.936;2023-05-16T08:34:22;10.67;;;4.53;;
9763;SDS011;4921;43.214;27.936;2023-05-16T08:36:49;8.60;;;5.10;;
9763;SDS011;4921;43.214;27.936;2023-05-16T08:39:16;11.77;;;4.47;;
9763;SDS011;4921;43.214;27.936;2023-05-16T08:41:43;9.00;;;4.90;;
9763;SDS011;4921;43.214;27.936;2023-05-16T08:44:10;7.20;;;4.80;;
9763;SDS011;4921;43.214;27.936;2023-05-16T08:46:45;9.00;;;4.60;;
9763;SDS011;4921;43.214;27.936;2023-05-16T08:49:18;7.93;;;4.10;;
9763;SDS011;4921;43.214;27.936;2023-05-16T08:51:45;9.10;;;4.43;;
9763;SDS011;4921;43.214;27.936;2023-05-16T08:54:14;6.90;;;4.13;;
9763;SDS011;4921;43.214;27.936;2023-05-16T08:56:42;9.67;;;4.60;;
9763;SDS011;4921;43.214;27.936;2023-05-16T08:59:09;7.47;;;4.23;;
9763;SDS011;4921;43.214;27.936;2023-05-16T09:01:37;6.37;;;4.03;;
9763;SDS011;4921;43.214;27.936;2023-05-16T09:04:05;5.73;;;4.23;;
9763;SDS011;4921;43.214;27.936;2023-05-16T09:06:34;6.13;;;4.37;;
9763;SDS011;4921;43.214;27.936;2023-05-16T09:09:01;5.70;;;4.07;;
9763;SDS011;4921;43.214;27.936;2023-05-16T09:11:32;5.10;;;3.90;;
9763;SDS011;4921;43.214;27.936;2023-05-16T09:13:59;10.27;;;4.40;;
9763;SDS011;4921;43.214;27.936;2023-05-16T09:16:26;8.10;;;4.57;;
9763;SDS011;4921;43.214;27.936;2023-05-16T09:18:53;8.50;;;4.60;;
9763;SDS011;4921;43.214;27.936;2023-05-16T09:21:26;7.90;;;4.67;;
9763;SDS011;4921;43.214;27.936;2023-05-16T09:23:55;11.13;;;4.30;;
9763;SDS011;4921;43.214;27.936;2023-05-16T09:26:22;12.07;;;4.63;;
9763;SDS011;4921;43.214;27.936;2023-05-16T09:28:52;9.97;;;4.50;;
9763;SDS011;4921;43.214;27.936;2023-05-16T09:31:20;10.83;;;4.70;;
9763;SDS011;4921;43.214;27.936;2023-05-16T09:33:50;10.13;;;4.43;;
9763;SDS011;4921;43.214;27.936;2023-05-16T09:36:17;5.93;;;4.40;;
9763;SDS011;4921;43.214;27.936;2023-05-16T09:38:44;7.57;;;4.20;;
9763;SDS011;4921;43.214;27.936;2023-05-16T09:41:12;7.73;;;4.60;;
9763;SDS011;4921;43.214;27.936;2023-05-16T09:43:40;7.47;;;4.30;;
9763;SDS011;4921;43.214;27.936;2023-05-16T09:46:08;8.83;;;4.43;;
9763;SDS011;4921;43.214;27.936;2023-05-16T09:48:39;8.83;;;4.30;;
9763;SDS011;4921;43.214;27.936;2023-05-16T09:51:07;7.83;;;4.90;;
9763;SDS011;4921;43.214;27.936;2023-05-16T09:53:34;7.33;;;4.30;;
9763;SDS011;4921;43.214;27.936;2023-05-16T09:56:04;10.73;;;4.47;;
9763;SDS011;4921;43.214;27.936;2023-05-16T09:58:33;8.47;;;4.70;;
9763;SDS011;4921;43.214;27.936;2023-05-16T10:01:01;10.37;;;5.03;;
9763;SDS011;4921;43.214;27.936;2023-05-16T10:03:29;12.20;;;4.23;;
9763;SDS011;4921;43.214;27.936;2023-05-16T10:05:56;8.60;;;4.97;;
9763;SDS011;4921;43.214;27.936;2023-05-16T10:08:27;7.07;;;4.53;;
9763;SDS011;4921;43.214;27.936;2023-05-16T10:11:00;10.90;;;4.73;;
9763;SDS011;4921;43.214;27.936;2023-05-16T10:13:28;7.57;;;4.37;;
9763;SDS011;4921;43.214;27.936;2023-05-16T10:15:58;10.20;;;5.07;;
9763;SDS011;4921;43.214;27.936;2023-05-16T10:18:28;9.60;;;4.87;;
9763;SDS011;4921;43.214;27.936;2023-05-16T10:20:56;9.80;;;4.50;;
9763;SDS011;4921;43.214;27.936;2023-05-16T10:23:26;8.43;;;4.87;;
9763;SDS011;4921;43.214;27.936;2023-05-16T10:25:53;6.97;;;4.80;;
9763;SDS011;4921;43.214;27.936;2023-05-16T10:28:23;13.07;;;4.77;;
9763;SDS011;4921;43.214;27.936;2023-05-16T10:30:51;10.93;;;4.70;;
9763;SDS011;4921;43.214;27.936;2023-05-16T10:33:22;9.13;;;4.80;;
9763;SDS011;4921;43.214;27.936;2023-05-16T10:35:49;8.97;;;4.60;;
9763;SDS011;4921;43.214;27.936;2023-05-16T10:38:16;7.07;;;4.23;;
9763;SDS011;4921;43.214;27.936;2023-05-16T10:40:44;8.47;;;4.60;;
9763;SDS011;4921;43.214;27.936;2023-05-16T10:43:21;6.93;;;4.20;;
9763;SDS011;4921;43.214;27.936;2023-05-16T10:45:52;12.13;;;5.03;;
9763;SDS011;4921;43.214;27.936;2023-05-16T10:48:28;10.00;;;4.83;;
9763;SDS011;4921;43.214;27.936;2023-05-16T10:50:56;7.50;;;5.00;;
9763;SDS011;4921;43.214;27.936;2023-05-16T10:53:28;10.10;;;4.60;;
9763;SDS011;4921;43.214;27.936;2023-05-16T10:56:08;7.70;;;4.47;;
9763;SDS011;4921;43.214;27.936;2023-05-16T10:58:40;7.80;;;4.37;;
9763;SDS011;4921;43.214;27.936;2023-05-16T11:01:14;8.23;;;4.80;;
9763;SDS011;4921;43.214;27.936;2023-05-16T11:04:03;4.43;;;3.90;;
9763;SDS011;4921;43.214;27.936;2023-05-16T11:06:31;6.47;;;4.57;;
9763;SDS011;4921;43.214;27.936;2023-05-16T11:09:06;10.07;;;4.40;;
9763;SDS011;4921;43.214;27.936;2023-05-16T11:11:43;7.07;;;4.00;;
9763;SDS011;4921;43.214;27.936;2023-05-16T11:14:16;9.83;;;5.00;;
9763;SDS011;4921;43.214;27.936;2023-05-16T11:16:47;7.90;;;4.17;;
9763;SDS011;4921;43.214;27.936;2023-05-16T11:19:28;5.83;;;4.67;;
9763;SDS011;4921;43.214;27.936;2023-05-16T11:22:06;6.63;;;4.77;;
9763;SDS011;4921;43.214;27.936;2023-05-16T11:24:34;8.73;;;4.80;;
9763;SDS011;4921;43.214;27.936;2023-05-16T11:27:02;7.63;;;4.60;;
9763;SDS011;4921;43.214;27.936;2023-05-16T11:29:30;9.07;;;4.80;;
9763;SDS011;4921;43.214;27.936;2023-05-16T11:31:57;7.33;;;4.47;;
9763;SDS011;4921;43.214;27.936;2023-05-16T11:34:24;8.63;;;4.50;;
9763;SDS011;4921;43.214;27.936;2023-05-16T11:36:53;10.43;;;4.90;;
9763;SDS011;4921;43.214;27.936;2023-05-16T11:39:21;7.90;;;4.70;;
9763;SDS011;4921;43.214;27.936;2023-05-16T11:41:49;9.70;;;4.73;;
9763;SDS011;4921;43.214;27.936;2023-05-16T11:44:16;5.67;;;4.20;;
9763;SDS011;4921;43.214;27.936;2023-05-16T11:46:43;9.80;;;5.00;;
9763;SDS011;4921;43.214;27.936;2023-05-16T11:49:09;11.63;;;5.03;;
9763;SDS011;4921;43.214;27.936;2023-05-16T11:51:37;8.73;;;4.40;;
9763;SDS011;4921;43.214;27.936;2023-05-16T11:54:06;10.93;;;4.60;;
9763;SDS011;4921;43.214;27.936;2023-05-16T11:56:34;9.17;;;4.73;;
9763;SDS011;4921;43.214;27.936;2023-05-16T11:59:01;7.73;;;5.27;;
9763;SDS011;4921;43.214;27.936;2023-05-16T12:01:32;20.20;;;11.33;;
9763;SDS011;4921;43.214;27.936;2023-05-16T12:04:00;11.30;;;6.10;;
9763;SDS011;4921;43.214;27.936;2023-05-16T12:06:28;10.37;;;5.13;;
9763;SDS011;4921;43.214;27.936;2023-05-16T12:08:55;5.87;;;4.17;;
9763;SDS011;4921;43.214;27.936;2023-05-16T12:11:23;7.17;;;4.83;;
9763;SDS011;4921;43.214;27.936;2023-05-16T12:13:50;10.27;;;4.63;;
9763;SDS011;4921;43.214;27.936;2023-05-16T12:16:18;14.40;;;4.93;;
9763;SDS011;4921;43.214;27.936;2023-05-16T12:18:45;8.90;;;4.83;;
9763;SDS011;4921;43.214;27.936;2023-05-16T12:21:13;9.30;;;4.80;;
9763;SDS011;4921;43.214;27.936;2023-05-16T12:23:41;11.23;;;4.37;;
9763;SDS011;4921;43.214;27.936;2023-05-16T12:26:08;7.93;;;4.80;;
9763;SDS011;4921;43.214;27.936;2023-05-16T12:28:38;10.67;;;4.63;;
9763;SDS011;4921;43.214;27.936;2023-05-16T12:31:10;12.50;;;4.53;;
9763;SDS011;4921;43.214;27.936;2023-05-16T12:33:44;11.20;;;4.90;;
9763;SDS011;4921;43.214;27.936;2023-05-16T12:36:12;8.80;;;4.80;;
9763;SDS011;4921;43.214;27.936;2023-05-16T12:38:41;8.90;;;4.70;;
9763;SDS011;4921;43.214;27.936;2023-05-16T12:41:16;9.27;;;5.23;;
9763;SDS011;4921;43.214;27.936;2023-05-16T12:43:45;11.70;;;5.17;;
9763;SDS011;4921;43.214;27.936;2023-05-16T12:46:13;7.63;;;4.33;;
9763;SDS011;4921;43.214;27.936;2023-05-16T12:48:40;7.43;;;4.50;;
9763;SDS011;4921;43.214;27.936;2023-05-16T12:51:09;14.47;;;4.60;;
9763;SDS011;4921;43.214;27.936;2023-05-16T12:53:41;9.37;;;4.80;;
9763;SDS011;4921;43.214;27.936;2023-05-16T12:56:09;8.37;;;4.60;;
9763;SDS011;4921;43.214;27.936;2023-05-16T12:58:37;11.63;;;4.53;;
9763;SDS011;4921;43.214;27.936;2023-05-16T13:01:05;10.13;;;4.77;;
9763;SDS011;4921;43.214;27.936;2023-05-16T13:03:33;8.10;;;4.70;;
9763;SDS011;4921;43.214;27.936;2023-05-16T13:06:01;11.00;;;4.47;;
9763;SDS011;4921;43.214;27.936;2023-05-16T13:08:48;9.97;;;5.00;;
9763;SDS011;4921;43.214;27.936;2023-05-16T13:11:15;13.47;;;5.37;;
9763;SDS011;4921;43.214;27.936;2023-05-16T13:13:43;11.20;;;5.23;;
9763;SDS011;4921;43.214;27.936;2023-05-16T13:16:11;10.70;;;4.83;;
9763;SDS011;4921;43.214;27.936;2023-05-16T13:18:38;9.60;;;4.50;;
9763;SDS011;4921;43.214;27.936;2023-05-16T13:21:05;9.03;;;4.67;;
9763;SDS011;4921;43.214;27.936;2023-05-16T13:23:32;12.93;;;5.00;;
9763;SDS011;4921;43.214;27.936;2023-05-16T13:25:59;8.97;;;5.00;;
9763;SDS011;4921;43.214;27.936;2023-05-16T13:28:26;7.13;;;5.00;;
9763;SDS011;4921;43.214;27.936;2023-05-16T13:30:53;8.37;;;4.90;;
9763;SDS011;4921;43.214;27.936;2023-05-16T13:33:21;7.10;;;4.07;;
9763;SDS011;4921;43.214;27.936;2023-05-16T13:35:48;13.63;;;5.03;;
9763;SDS011;4921;43.214;27.936;2023-05-16T13:38:16;8.10;;;4.30;;
9763;SDS011;4921;43.214;27.936;2023-05-16T13:40:44;11.20;;;5.10;;
9763;SDS011;4921;43.214;27.936;2023-05-16T13:43:11;8.33;;;4.43;;
9763;SDS011;4921;43.214;27.936;2023-05-16T13:45:39;9.83;;;4.70;;
9763;SDS011;4921;43.214;27.936;2023-05-16T13:48:06;12.57;;;5.30;;
9763;SDS011;4921;43.214;27.936;2023-05-16T13:50:34;7.33;;;4.37;;
9763;SDS011;4921;43.214;27.936;2023-05-16T13:53:01;9.20;;;4.63;;
9763;SDS011;4921;43.214;27.936;2023-05-16T13:55:28;12.70;;;5.47;;
9763;SDS011;4921;43.214;27.936;2023-05-16T13:57:55;11.00;;;5.20;;
9763;SDS011;4921;43.214;27.936;2023-05-16T14:00:22;11.00;;;5.37;;
9763;SDS011;4921;43.214;27.936;2023-05-16T14:02:51;10.90;;;5.50;;
9763;SDS011;4921;43.214;27.936;2023-05-16T14:05:18;8.63;;;5.80;;
9763;SDS011;4921;43.214;27.936;2023-05-16T14:07:46;13.67;;;5.63;;
9763;SDS011;4921;43.214;27.936;2023-05-16T14:10:13;12.83;;;5.30;;
9763;SDS011;4921;43.214;27.936;2023-05-16T14:12:40;10.90;;;5.60;;
9763;SDS011;4921;43.214;27.936;2023-05-16T14:15:07;10.97;;;6.10;;
9763;SDS011;4921;43.214;27.936;2023-05-16T14:17:35;13.90;;;5.83;;
9763;SDS011;4921;43.214;27.936;2023-05-16T14:20:02;10.43;;;5.57;;
9763;SDS011;4921;43.214;27.936;2023-05-16T14:22:33;11.13;;;5.80;;
9763;SDS011;4921;43.214;27.936;2023-05-16T14:25:01;11.13;;;6.07;;
9763;SDS011;4921;43.214;27.936;2023-05-16T14:27:28;13.60;;;5.83;;
9763;SDS011;4921;43.214;27.936;2023-05-16T14:29:55;14.13;;;5.57;;
9763;SDS011;4921;43.214;27.936;2023-05-16T14:32:23;14.93;;;6.20;;
9763;SDS011;4921;43.214;27.936;2023-05-16T14:34:49;12.80;;;6.10;;
9763;SDS011;4921;43.214;27.936;2023-05-16T14:37:16;12.37;;;6.00;;
9763;SDS011;4921;43.214;27.936;2023-05-16T14:39:45;11.97;;;5.87;;
9763;SDS011;4921;43.214;27.936;2023-05-16T14:42:16;14.50;;;6.50;;
9763;SDS011;4921;43.214;27.936;2023-05-16T14:44:43;12.40;;;6.13;;
9763;SDS011;4921;43.214;27.936;2023-05-16T14:47:10;11.57;;;6.00;;
9763;SDS011;4921;43.214;27.936;2023-05-16T14:49:37;11.67;;;6.30;;
9763;SDS011;4921;43.214;27.936;2023-05-16T14:52:04;11.27;;;5.80;;
9763;SDS011;4921;43.214;27.936;2023-05-16T14:54:31;16.47;;;8.20;;
9763;SDS011;4921;43.214;27.936;2023-05-16T14:56:58;17.10;;;8.57;;
9763;SDS011;4921;43.214;27.936;2023-05-16T14:59:27;16.47;;;6.87;;
9763;SDS011;4921;43.214;27.936;2023-05-16T15:01:54;13.40;;;5.80;;
9763;SDS011;4921;43.214;27.936;2023-05-16T15:04:20;13.77;;;6.67;;